createdAt,value
2022-11-09T00:00:40.034Z,5.88
2022-11-09T00:03:07.784Z,4.90
2022-11-09T00:05:35.092Z,4.75
2022-11-09T00:08:02.536Z,5.55
2022-11-09T00:10:29.806Z,5.50
2022-11-09T00:12:57.080Z,6.30
2022-11-09T00:15:24.347Z,6.32
2022-11-09T00:17:51.645Z,6.90
2022-11-09T00:20:18.910Z,6.38
2022-11-09T00:22:49.659Z,6.50
2022-11-09T00:25:17.184Z,7.03
2022-11-09T00:27:44.426Z,7.57
2022-11-09T00:30:12.180Z,7.03
2022-11-09T00:32:39.544Z,7.55
2022-11-09T00:35:07.513Z,7.07
2022-11-09T00:37:35.665Z,7.47
2022-11-09T00:40:03.016Z,7.25
2022-11-09T00:42:30.654Z,7.68
2022-11-09T00:44:58.005Z,8.38
2022-11-09T00:47:25.271Z,9.10
2022-11-09T00:49:52.831Z,8.95
2022-11-09T00:52:20.132Z,8.18
2022-11-09T00:54:47.532Z,7.78
2022-11-09T00:57:14.790Z,7.07
2022-11-09T00:59:44.830Z,7.40
2022-11-09T01:02:12.214Z,7.13
2022-11-09T01:04:39.442Z,7.50
2022-11-09T01:07:08.028Z,7.20
2022-11-09T01:09:35.384Z,7.38
2022-11-09T01:12:02.684Z,7.28
2022-11-09T01:14:30.059Z,8.70
2022-11-09T01:16:57.449Z,8.27
2022-11-09T01:19:26.739Z,6.97
2022-11-09T01:21:54.097Z,7.30
2022-11-09T01:24:21.446Z,7.45
2022-11-09T01:26:48.759Z,7.85
2022-11-09T01:29:16.201Z,5.88
2022-11-09T01:31:49.438Z,7.18
2022-11-09T01:34:19.536Z,6.90
2022-11-09T01:36:47.232Z,8.55
2022-11-09T01:39:14.827Z,7.43
2022-11-09T01:41:43.851Z,7.72
2022-11-09T01:44:21.544Z,7.88
2022-11-09T01:47:11.200Z,8.48
2022-11-09T01:49:42.092Z,8.07
2022-11-09T01:52:16.787Z,6.80
2022-11-09T01:54:48.634Z,7.53
2022-11-09T01:57:27.416Z,7.75
2022-11-09T02:00:00.881Z,7.10
2022-11-09T02:02:30.378Z,7.40
2022-11-09T02:05:01.613Z,7.63
2022-11-09T02:07:29.991Z,8.38
2022-11-09T02:10:03.367Z,6.60
2022-11-09T02:12:37.070Z,6.35
2022-11-09T02:15:06.654Z,6.22
2022-11-09T02:17:38.650Z,6.20
2022-11-09T02:20:20.704Z,5.90
2022-11-09T02:22:52.217Z,6.03
2022-11-09T02:26:15.597Z,6.28
2022-11-09T02:29:12.046Z,4.93
2022-11-09T02:31:45.614Z,7.45
2022-11-09T02:34:17.157Z,5.65
2022-11-09T02:36:44.654Z,5.97
2022-11-09T02:39:18.634Z,5.60
2022-11-09T02:41:52.564Z,4.80
2022-11-09T02:44:20.346Z,5.55
2022-11-09T02:46:48.021Z,5.88
2022-11-09T02:49:15.514Z,6.93
2022-11-09T02:51:43.089Z,5.93
2022-11-09T02:54:11.087Z,6.57
2022-11-09T02:56:42.485Z,5.20
2022-11-09T02:59:10.258Z,5.80
2022-11-09T03:01:45.108Z,7.43
2022-11-09T03:04:15.843Z,6.05
2022-11-09T03:06:43.789Z,6.55
2022-11-09T03:09:15.556Z,5.72
2022-11-09T03:11:46.566Z,6.93
2022-11-09T03:14:16.998Z,7.20
2022-11-09T03:16:50.947Z,6.55
2022-11-09T03:19:19.155Z,7.47
2022-11-09T03:21:49.018Z,6.78
2022-11-09T03:24:16.562Z,6.57
2022-11-09T03:26:44.105Z,6.93
2022-11-09T03:29:11.639Z,6.22
2022-11-09T03:31:40.034Z,6.70
2022-11-09T03:34:11.812Z,7.20
2022-11-09T03:36:39.971Z,6.50
2022-11-09T03:39:07.384Z,5.93
2022-11-09T03:41:35.519Z,7.07
2022-11-09T03:44:03.103Z,6.32
2022-11-09T03:46:30.720Z,5.50
2022-11-09T03:48:58.195Z,5.18
2022-11-09T03:51:25.690Z,5.80
2022-11-09T03:53:53.212Z,5.32
2022-11-09T03:56:20.734Z,4.43
2022-11-09T03:58:48.131Z,4.50
2022-11-09T04:01:15.658Z,5.38
2022-11-09T04:03:43.664Z,6.50
2022-11-09T04:06:19.016Z,5.18
2022-11-09T04:08:51.456Z,5.68
2022-11-09T04:11:31.477Z,5.35
2022-11-09T04:14:05.135Z,4.78
2022-11-09T04:16:42.547Z,4.90
2022-11-09T04:19:13.361Z,4.57
2022-11-09T04:22:17.511Z,5.55
2022-11-09T04:24:51.071Z,4.93
2022-11-09T04:28:06.779Z,4.85
2022-11-09T04:31:09.181Z,5.38
2022-11-09T04:33:36.885Z,6.20
2022-11-09T04:36:05.505Z,5.68
2022-11-09T04:38:33.271Z,5.60
2022-11-09T04:41:06.296Z,4.50
2022-11-09T04:43:45.891Z,4.85
2022-11-09T04:46:16.282Z,4.53
2022-11-09T04:48:46.411Z,4.15
2022-11-09T04:51:19.409Z,5.03
2022-11-09T04:53:50.154Z,4.88
2022-11-09T04:56:17.599Z,4.88
2022-11-09T04:58:51.200Z,4.80
2022-11-09T05:01:19.028Z,4.60
2022-11-09T05:03:47.035Z,4.90
2022-11-09T05:06:35.994Z,4.82
2022-11-09T05:09:07.842Z,4.55
2022-11-09T05:11:36.124Z,4.10
2022-11-09T05:14:04.697Z,4.15
2022-11-09T05:16:35.245Z,4.05
2022-11-09T05:19:05.705Z,4.28
2022-11-09T05:21:33.505Z,4.40
2022-11-09T05:24:01.205Z,4.38
2022-11-09T05:26:33.041Z,4.35
2022-11-09T05:29:03.389Z,4.40
2022-11-09T05:31:31.340Z,4.25
2022-11-09T05:33:59.570Z,5.03
2022-11-09T05:36:29.716Z,4.60
2022-11-09T05:39:02.569Z,4.97
2022-11-09T05:41:32.619Z,4.32
2022-11-09T05:44:04.515Z,4.85
2022-11-09T05:46:53.787Z,4.68
2022-11-09T05:49:21.548Z,4.65
2022-11-09T05:51:48.872Z,4.13
2022-11-09T05:54:17.291Z,4.75
2022-11-09T05:56:44.843Z,5.55
2022-11-09T05:59:12.338Z,5.30
2022-11-09T06:01:42.323Z,5.50
2022-11-09T06:04:10.033Z,5.10
2022-11-09T06:06:37.902Z,5.70
2022-11-09T06:09:06.112Z,4.95
2022-11-09T06:11:33.733Z,5.10
2022-11-09T06:14:01.388Z,5.47
2022-11-09T06:16:29.621Z,5.18
2022-11-09T06:19:02.291Z,5.30
2022-11-09T06:21:32.257Z,4.32
2022-11-09T06:24:00.135Z,5.03
2022-11-09T06:26:27.754Z,5.25
2022-11-09T06:28:55.762Z,4.97
2022-11-09T06:31:26.899Z,4.88
2022-11-09T06:34:02.401Z,4.47
2022-11-09T06:36:33.724Z,4.57
2022-11-09T06:39:04.327Z,4.38
2022-11-09T06:41:34.850Z,4.57
2022-11-09T06:44:10.890Z,4.97
2022-11-09T06:46:46.364Z,4.70
2022-11-09T06:49:36.255Z,4.78
2022-11-09T06:52:29.025Z,4.07
2022-11-09T06:55:34.553Z,3.90
2022-11-09T06:58:18.186Z,4.90
2022-11-09T07:00:49.270Z,4.20
2022-11-09T07:03:21.463Z,3.20
2022-11-09T07:05:53.736Z,4.13
2022-11-09T07:08:25.612Z,3.88
2022-11-09T07:11:00.631Z,5.18
2022-11-09T07:13:38.821Z,4.68
2022-11-09T07:16:28.590Z,4.95
2022-11-09T07:19:27.877Z,5.00
2022-11-09T07:22:30.747Z,4.30
2022-11-09T07:25:04.019Z,4.82
2022-11-09T07:27:57.849Z,5.10
2022-11-09T07:30:55.347Z,4.50
2022-11-09T07:37:32.262Z,3.45
2022-11-09T07:40:01.979Z,3.13
2022-11-09T07:42:29.350Z,3.15
2022-11-09T07:44:56.673Z,3.88
2022-11-09T07:47:24.022Z,3.92
2022-11-09T07:49:51.266Z,3.25
2022-11-09T07:52:18.524Z,3.60
2022-11-09T07:54:50.877Z,3.38
2022-11-09T07:57:19.416Z,3.55
2022-11-09T07:59:46.736Z,3.88
2022-11-09T08:02:14.592Z,3.45
2022-11-09T08:04:41.946Z,4.07
2022-11-09T08:07:09.325Z,3.75
2022-11-09T08:09:37.313Z,4.22
2022-11-09T08:12:04.702Z,4.13
2022-11-09T08:14:32.021Z,3.42
2022-11-09T08:16:59.344Z,3.75
2022-11-09T08:19:26.604Z,3.80
2022-11-09T08:21:57.326Z,3.90
2022-11-09T08:24:24.845Z,3.90
2022-11-09T08:26:52.157Z,3.72
2022-11-09T08:29:19.543Z,3.85
2022-11-09T08:31:46.789Z,4.18
2022-11-09T08:34:14.945Z,3.75
2022-11-09T08:36:42.419Z,4.10
2022-11-09T08:39:10.097Z,3.50
2022-11-09T08:41:37.525Z,3.30
2022-11-09T08:44:05.038Z,3.67
2022-11-09T08:46:35.810Z,3.33
2022-11-09T08:49:06.551Z,3.40
2022-11-09T08:51:33.785Z,3.80
2022-11-09T08:54:01.109Z,3.78
2022-11-09T08:56:28.371Z,3.75
2022-11-09T08:58:55.648Z,3.50
2022-11-09T09:01:23.040Z,4.05
2022-11-09T09:03:50.365Z,3.38
2022-11-09T09:06:17.606Z,3.80
2022-11-09T09:08:44.853Z,3.95
2022-11-09T09:11:12.421Z,3.92
2022-11-09T09:13:43.347Z,4.45
2022-11-09T09:16:11.807Z,3.45
2022-11-09T09:18:39.082Z,3.70
2022-11-09T09:21:07.292Z,3.45
2022-11-09T09:23:34.695Z,3.67
2022-11-09T09:26:02.227Z,3.85
2022-11-09T09:28:29.534Z,4.75
2022-11-09T09:31:00.132Z,3.90
2022-11-09T09:33:27.713Z,3.70
2022-11-09T09:35:58.255Z,4.30
2022-11-09T09:38:26.117Z,3.90
2022-11-09T09:41:00.886Z,4.72
2022-11-09T09:43:30.659Z,4.13
2022-11-09T09:45:58.938Z,5.00
2022-11-09T09:48:26.155Z,5.20
2022-11-09T09:50:54.897Z,6.07
2022-11-09T09:53:37.558Z,5.80
2022-11-09T09:56:06.908Z,5.38
2022-11-09T09:58:35.460Z,6.00
2022-11-09T10:01:07.962Z,5.35
2022-11-09T10:03:35.251Z,5.55
2022-11-09T10:06:08.988Z,6.15
2022-11-09T10:08:45.420Z,5.90
2022-11-09T10:11:13.467Z,6.25
2022-11-09T10:14:07.221Z,6.43
2022-11-09T10:16:47.372Z,6.10
2022-11-09T10:19:33.541Z,5.60
2022-11-09T10:22:08.769Z,5.95
2022-11-09T10:24:36.949Z,5.22
2022-11-09T10:27:27.662Z,6.70
2022-11-09T10:29:55.434Z,6.38
2022-11-09T10:32:24.146Z,6.70
2022-11-09T10:35:07.792Z,6.90
2022-11-09T10:37:43.090Z,6.18
2022-11-09T10:40:10.548Z,6.32
2022-11-09T10:43:00.210Z,5.78
2022-11-09T10:45:47.422Z,6.28
2022-11-09T10:48:35.428Z,6.45
2022-11-09T10:51:40.075Z,6.10
2022-11-09T10:54:31.232Z,7.03
2022-11-09T10:57:18.699Z,5.85
2022-11-09T11:00:05.149Z,6.80
2022-11-09T11:02:52.646Z,7.03
2022-11-09T11:05:39.737Z,6.18
2022-11-09T11:08:28.506Z,5.03
2022-11-09T11:11:36.132Z,5.65
2022-11-09T11:14:23.605Z,5.20
2022-11-09T11:17:22.801Z,5.43
2022-11-09T11:20:27.574Z,5.82
2022-11-09T11:23:14.822Z,5.72
2022-11-09T11:26:05.911Z,5.00
2022-11-09T11:28:54.567Z,6.27
2022-11-09T11:31:40.288Z,6.55
2022-11-09T11:34:53.403Z,5.93
2022-11-09T11:37:46.967Z,5.20
2022-11-09T11:40:40.343Z,5.05
2022-11-09T11:43:35.308Z,5.95
2022-11-09T11:46:21.313Z,6.07
2022-11-09T11:49:25.651Z,6.45
2022-11-09T11:52:18.089Z,9.88
2022-11-09T11:55:37.551Z,7.63
2022-11-09T11:58:31.857Z,6.85
2022-11-09T12:01:22.910Z,7.78
2022-11-09T12:04:19.972Z,7.78
2022-11-09T12:07:11.749Z,7.43
2022-11-09T12:10:10.211Z,7.40
2022-11-09T12:13:00.897Z,7.00
2022-11-09T12:15:46.567Z,7.05
2022-11-09T12:18:55.471Z,6.53
2022-11-09T12:21:49.553Z,6.35
2022-11-09T12:25:01.598Z,7.30
2022-11-09T12:28:06.273Z,7.30
2022-11-09T12:30:57.545Z,7.05
2022-11-09T12:33:44.048Z,6.90
2022-11-09T12:36:32.722Z,7.40
2022-11-09T12:39:18.589Z,7.65
2022-11-09T12:42:06.433Z,8.02
2022-11-09T12:44:52.640Z,7.88
2022-11-09T12:47:41.915Z,7.57
2022-11-09T12:50:27.905Z,8.18
2022-11-09T12:53:14.396Z,8.05
2022-11-09T12:56:00.482Z,8.65
2022-11-09T12:58:46.962Z,8.50
2022-11-09T13:01:35.816Z,15.20
2022-11-09T13:04:22.876Z,9.00
2022-11-09T13:07:15.138Z,8.20
2022-11-09T13:10:02.606Z,9.02
2022-11-09T13:12:48.622Z,7.47
2022-11-09T13:15:35.448Z,7.85
2022-11-09T13:18:25.856Z,7.68
2022-11-09T13:21:37.824Z,8.23
2022-11-09T13:24:34.106Z,8.10
2022-11-09T13:27:38.601Z,8.60
2022-11-09T13:30:24.668Z,8.52
2022-11-09T13:33:17.799Z,8.02
2022-11-09T13:36:09.754Z,7.80
2022-11-09T13:41:42.732Z,7.88
2022-11-09T13:44:32.826Z,7.25
2022-11-09T13:47:27.130Z,7.93
2022-11-09T13:50:18.542Z,6.93
2022-11-09T13:53:04.768Z,7.80
2022-11-09T13:55:50.813Z,7.47
2022-11-09T13:58:41.095Z,7.57
2022-11-09T14:01:53.982Z,7.22
2022-11-09T14:04:44.048Z,7.15
2022-11-09T14:07:32.941Z,8.00
2022-11-09T14:10:30.681Z,8.40
2022-11-09T14:13:36.938Z,7.20
2022-11-09T14:16:44.854Z,7.93
2022-11-09T14:19:49.286Z,7.95
2022-11-09T14:22:35.991Z,7.25
2022-11-09T14:25:23.534Z,7.25
2022-11-09T14:28:28.721Z,7.38
2022-11-09T14:31:26.491Z,7.50
2022-11-09T14:34:15.671Z,7.10
2022-11-09T14:37:04.905Z,7.00
2022-11-09T14:39:53.959Z,7.55
2022-11-09T14:42:45.947Z,7.32
2022-11-09T14:45:32.485Z,8.73
2022-11-09T14:48:19.560Z,8.95
2022-11-09T14:51:07.457Z,7.65
2022-11-09T14:53:53.313Z,7.72
2022-11-09T14:56:39.187Z,6.75
2022-11-09T14:59:30.013Z,7.22
2022-11-09T15:02:19.921Z,7.15
2022-11-09T15:05:06.817Z,8.15
2022-11-09T15:07:52.998Z,8.18
2022-11-09T15:10:39.476Z,7.53
2022-11-09T15:13:33.566Z,7.40
2022-11-09T15:16:23.325Z,7.72
2022-11-09T15:19:23.132Z,11.25
2022-11-09T15:22:29.478Z,9.95
2022-11-09T15:25:21.161Z,9.93
2022-11-09T15:28:09.913Z,10.45
2022-11-09T15:30:55.881Z,11.85
2022-11-09T15:33:52.467Z,15.30
2022-11-09T15:36:40.899Z,15.25
2022-11-09T15:42:16.635Z,16.95
2022-11-09T15:45:02.526Z,17.25
2022-11-09T15:47:53.440Z,17.58
2022-11-09T15:50:39.835Z,16.95
2022-11-09T15:53:25.897Z,16.83
2022-11-09T15:56:15.402Z,15.55
2022-11-09T15:59:01.614Z,14.80
2022-11-09T16:01:47.558Z,14.23
2022-11-09T16:04:33.478Z,13.45
2022-11-09T16:07:19.287Z,13.18
2022-11-09T16:10:05.470Z,17.27
2022-11-09T16:12:55.941Z,15.85
2022-11-09T16:15:41.884Z,14.52
2022-11-09T16:18:28.101Z,12.98
2022-11-09T16:21:15.945Z,12.60
2022-11-09T16:24:01.563Z,12.18
2022-11-09T16:26:47.811Z,10.93
2022-11-09T16:29:34.424Z,10.57
2022-11-09T16:32:20.330Z,10.13
2022-11-09T16:38:12.743Z,10.20
2022-11-09T16:41:00.387Z,11.00
2022-11-09T16:43:47.469Z,11.50
2022-11-09T16:46:34.719Z,11.50
2022-11-09T16:49:20.811Z,13.10
2022-11-09T16:52:06.945Z,10.45
2022-11-09T16:54:52.918Z,11.00
2022-11-09T16:57:38.663Z,16.13
2022-11-09T17:00:37.446Z,14.10
2022-11-09T17:03:31.536Z,13.60
2022-11-09T17:06:17.572Z,10.93
2022-11-09T17:09:03.584Z,10.43
2022-11-09T17:11:49.609Z,11.07
2022-11-09T17:14:35.622Z,9.88
2022-11-09T17:17:23.003Z,10.65
2022-11-09T17:20:09.532Z,11.48
2022-11-09T17:22:55.883Z,12.88
2022-11-09T17:25:41.897Z,12.07
2022-11-09T17:28:29.883Z,12.68
2022-11-09T17:31:23.467Z,14.55
2022-11-09T17:34:09.551Z,13.27
2022-11-09T17:37:04.274Z,13.57
2022-11-09T17:39:51.192Z,16.08
2022-11-09T17:42:36.943Z,15.68
2022-11-09T17:45:23.393Z,15.20
2022-11-09T17:48:09.306Z,14.20
2022-11-09T17:50:55.014Z,14.95
2022-11-09T17:53:40.773Z,12.88
2022-11-09T17:56:26.586Z,12.85
2022-11-09T17:59:12.620Z,12.20
2022-11-09T18:01:58.849Z,12.27
2022-11-09T18:04:44.754Z,11.55
2022-11-09T18:07:31.055Z,12.23
2022-11-09T18:10:18.057Z,10.93
2022-11-09T18:13:03.873Z,10.55
2022-11-09T18:15:49.803Z,10.48
2022-11-09T18:18:35.748Z,12.25
2022-11-09T18:21:23.405Z,13.43
2022-11-09T18:24:09.467Z,12.25
2022-11-09T18:26:55.227Z,11.80
2022-11-09T18:29:42.082Z,14.13
2022-11-09T18:32:27.899Z,12.85
2022-11-09T18:35:13.755Z,12.93
2022-11-09T18:37:59.689Z,12.52
2022-11-09T18:40:45.297Z,13.05
2022-11-09T18:43:31.334Z,13.05
2022-11-09T18:46:18.350Z,12.77
2022-11-09T18:49:08.889Z,11.98
2022-11-09T18:51:59.045Z,10.35
2022-11-09T18:54:45.012Z,10.52
2022-11-09T18:57:31.452Z,11.65
2022-11-09T19:00:21.129Z,10.35
2022-11-09T19:03:09.379Z,11.35
2022-11-09T19:05:55.590Z,11.80
2022-11-09T19:09:00.627Z,10.93
2022-11-09T19:11:46.928Z,11.18
2022-11-09T19:14:44.067Z,10.13
2022-11-09T19:17:30.171Z,10.07
2022-11-09T19:20:17.278Z,10.48
2022-11-09T19:23:03.500Z,11.27
2022-11-09T19:25:53.118Z,9.75
2022-11-09T19:28:39.301Z,8.93
2022-11-09T19:31:25.741Z,10.63
2022-11-09T19:34:12.331Z,11.45
2022-11-09T19:36:58.736Z,10.63
2022-11-09T19:39:47.556Z,9.90
2022-11-09T19:42:33.705Z,10.30
2022-11-09T19:45:19.446Z,9.27
2022-11-09T19:48:05.330Z,9.18
2022-11-09T19:50:52.300Z,9.48
2022-11-09T19:53:42.408Z,9.88
2022-11-09T19:56:30.341Z,8.63
2022-11-09T19:59:21.424Z,9.30
2022-11-09T20:02:09.526Z,10.00
2022-11-09T20:04:55.555Z,9.85
2022-11-09T20:07:41.350Z,13.38
2022-11-09T20:10:27.313Z,9.50
2022-11-09T20:13:13.387Z,9.75
2022-11-09T20:16:06.344Z,9.85
2022-11-09T20:18:52.572Z,12.23
2022-11-09T20:21:40.267Z,9.55
2022-11-09T20:24:26.344Z,8.45
2022-11-09T20:27:12.239Z,9.38
2022-11-09T20:29:58.379Z,10.07
2022-11-09T20:32:44.059Z,8.70
2022-11-09T20:35:30.012Z,9.70
2022-11-09T20:38:15.739Z,11.38
2022-11-09T20:41:02.876Z,13.40
2022-11-09T20:43:48.634Z,12.38
2022-11-09T20:46:36.703Z,10.88
2022-11-09T20:49:22.955Z,9.40
2022-11-09T20:52:09.035Z,10.05
2022-11-09T20:55:01.594Z,9.48
2022-11-09T20:57:50.833Z,9.18
2022-11-09T21:00:40.485Z,9.25
2022-11-09T21:03:26.884Z,9.52
2022-11-09T21:06:13.195Z,9.57
2022-11-09T21:09:01.082Z,10.10
2022-11-09T21:12:05.653Z,10.70
2022-11-09T21:14:52.962Z,12.02
2022-11-09T21:18:04.445Z,12.82
2022-11-09T21:20:50.642Z,11.43
2022-11-09T21:23:56.241Z,10.63
2022-11-09T21:27:01.001Z,10.95
2022-11-09T21:29:51.903Z,10.80
2022-11-09T21:32:38.275Z,10.60
2022-11-09T21:35:24.149Z,10.73
2022-11-09T21:38:10.306Z,12.15
2022-11-09T21:41:04.107Z,11.00
2022-11-09T21:43:55.981Z,9.55
2022-11-09T21:46:42.849Z,9.05
2022-11-09T21:49:28.869Z,11.52
2022-11-09T21:52:18.653Z,10.43
2022-11-09T21:55:04.942Z,11.02
2022-11-09T21:57:52.541Z,10.52
2022-11-09T22:00:38.649Z,9.98
2022-11-09T22:03:24.658Z,10.63
2022-11-09T22:06:10.808Z,9.85
2022-11-09T22:08:57.040Z,10.23
2022-11-09T22:12:01.744Z,10.07
2022-11-09T22:15:06.623Z,9.43
2022-11-09T22:17:53.908Z,9.02
2022-11-09T22:20:54.950Z,9.48
2022-11-09T22:23:40.773Z,8.32
2022-11-09T22:26:27.173Z,8.95
2022-11-09T22:29:12.985Z,9.02
2022-11-09T22:31:58.685Z,8.93
2022-11-09T22:34:44.795Z,8.75
2022-11-09T22:37:30.724Z,10.30
2022-11-09T22:40:18.304Z,9.40
2022-11-09T22:43:04.270Z,9.20
2022-11-09T22:45:50.040Z,9.98
2022-11-09T22:48:36.627Z,8.68
2022-11-09T22:51:22.768Z,8.57
2022-11-09T22:54:08.524Z,9.23
2022-11-09T22:56:54.364Z,9.85
2022-11-09T22:59:40.072Z,8.57
2022-11-09T23:02:25.818Z,9.65
2022-11-09T23:05:11.583Z,9.40
2022-11-09T23:07:57.369Z,8.88
2022-11-09T23:10:43.258Z,9.10
2022-11-09T23:13:29.047Z,9.38
2022-11-09T23:16:14.767Z,9.45
2022-11-09T23:19:00.668Z,8.77
2022-11-09T23:21:46.552Z,9.20
2022-11-09T23:24:51.291Z,9.32
2022-11-09T23:27:37.405Z,9.35
2022-11-09T23:30:23.111Z,9.10
2022-11-09T23:33:08.834Z,8.90
2022-11-09T23:35:54.909Z,9.35
2022-11-09T23:38:40.832Z,8.95
2022-11-09T23:41:27.136Z,8.80
2022-11-09T23:44:12.740Z,9.30
2022-11-09T23:46:58.329Z,9.55
2022-11-09T23:49:44.351Z,8.80
2022-11-09T23:52:30.048Z,8.70
2022-11-09T23:55:16.285Z,9.30
2022-11-09T23:58:02.794Z,8.73
